Time;durP1;ratioP1;P1;durP2;ratioP2;P2;SDS_P1;SDS_P2;PMS_P1;PMS_P2;Temp;Humidity;BMP_temperature;BMP_pressure;BME280_temperature;BME280_humidity;BME280_pressure;Samples;Min_cycle;Max_cycle;Signal;HPM_P1;HPM_P2
2022/05/31 00:01:25;;;;;;;10.35;1.92;;;25.60;99.90;;;;;;5054325;28;20424;-68
2022/05/31 00:03:52;;;;;;;2.60;1.38;;;25.70;99.90;;;;;;5055761;28;20032;-69
2022/05/31 00:06:19;;;;;;;6.68;1.70;;;25.80;99.90;;;;;;5054575;28;20032;-69
2022/05/31 00:08:45;;;;;;;5.85;2.25;;;25.80;99.90;;;;;;5055597;28;20380;-69
2022/05/31 00:11:13;;;;;;;6.38;1.60;;;25.90;99.90;;;;;;5055719;28;20021;-68
2022/05/31 00:13:39;;;;;;;7.40;1.50;;;25.80;99.90;;;;;;5054576;28;20469;-69
2022/05/31 00:16:07;;;;;;;19.92;12.02;;;25.80;99.90;;;;;;5035167;28;20060;-69
2022/05/31 00:18:33;;;;;;;2.95;2.05;;;25.80;99.90;;;;;;5038546;28;20025;-68
2022/05/31 00:21:00;;;;;;;3.88;1.05;;;25.80;99.90;;;;;;5047971;28;20457;-68
2022/05/31 00:23:27;;;;;;;4.47;1.25;;;25.80;99.90;;;;;;5055395;28;20112;-68
2022/05/31 00:25:53;;;;;;;9.65;1.77;;;25.80;99.90;;;;;;5055330;28;20474;-69
2022/05/31 00:28:20;;;;;;;7.80;1.70;;;25.80;99.90;;;;;;5055136;28;20094;-69
2022/05/31 00:30:47;;;;;;;8.93;1.60;;;26.00;99.90;;;;;;5042534;28;20052;-68
2022/05/31 00:33:13;;;;;;;7.70;3.25;;;26.10;99.90;;;;;;5055133;28;20021;-69
2022/05/31 00:35:46;;;;;;;10.65;3.67;;;26.10;99.90;;;;;;5054639;28;20013;-67
2022/05/31 00:38:13;;;;;;;4.35;2.42;;;26.00;99.90;;;;;;5055024;28;20033;-67
2022/05/31 00:40:40;;;;;;;5.78;2.13;;;26.00;99.90;;;;;;5049767;28;20032;-64
2022/05/31 00:43:11;;;;;;;11.57;4.25;;;26.10;99.90;;;;;;5055191;28;20025;-64
2022/05/31 00:45:59;;;;;;;10.13;3.92;;;26.10;99.90;;;;;;5054867;28;20213;-64
2022/05/31 00:48:47;;;;;;;13.60;2.80;;;26.10;99.90;;;;;;5054788;28;20044;-64
2022/05/31 00:51:16;;;;;;;8.23;3.33;;;26.00;99.90;;;;;;5067325;28;20034;-63
2022/05/31 00:53:50;;;;;;;10.55;2.10;;;26.10;99.90;;;;;;5075055;28;20461;-64
2022/05/31 00:56:20;;;;;;;11.35;5.70;;;26.00;99.90;;;;;;5034817;28;20021;-63
2022/05/31 00:58:57;;;;;;;15.23;4.15;;;26.00;99.90;;;;;;5063916;28;20024;-65
2022/05/31 01:01:24;;;;;;;8.60;3.40;;;26.00;99.90;;;;;;5049782;28;20474;-64
2022/05/31 01:03:51;;;;;;;7.88;3.63;;;26.00;99.90;;;;;;5054692;28;20029;-64
2022/05/31 01:06:19;;;;;;;10.52;4.68;;;26.10;99.90;;;;;;5054525;28;20059;-63
2022/05/31 01:08:46;;;;;;;9.50;4.15;;;26.10;99.90;;;;;;5052096;28;20025;-64
2022/05/31 01:11:19;;;;;;;15.40;4.47;;;26.10;99.90;;;;;;5053196;28;20029;-64
2022/05/31 01:13:46;;;;;;;6.38;3.20;;;26.10;99.90;;;;;;5053439;28;20047;-63
2022/05/31 01:16:15;;;;;;;12.02;4.13;;;26.10;99.90;;;;;;5052368;28;20371;-63
2022/05/31 01:18:42;;;;;;;4.97;2.60;;;26.00;99.90;;;;;;5053938;28;20075;-64
2022/05/31 01:21:09;;;;;;;7.78;3.17;;;25.90;99.90;;;;;;5053112;28;20036;-64
2022/05/31 01:23:59;;;;;;;5.80;3.08;;;25.80;99.90;;;;;;5054149;28;20025;-62
2022/05/31 01:26:41;;;;;;;10.80;4.07;;;25.80;99.90;;;;;;4971909;28;20154;-62
2022/05/31 01:29:27;;;;;;;11.98;6.30;;;25.80;99.90;;;;;;4973505;28;20373;-66
2022/05/31 01:32:06;;;;;;;12.32;6.75;;;25.80;99.90;;;;;;4989789;28;20030;-62
2022/05/31 01:34:41;;;;;;;10.40;5.22;;;25.80;99.90;;;;;;4989750;28;20045;-64
2022/05/31 01:37:08;;;;;;;11.70;5.43;;;25.80;99.90;;;;;;4972411;28;20022;-64
2022/05/31 01:39:38;;;;;;;17.67;7.85;;;25.80;99.90;;;;;;4972945;28;20476;-64
2022/05/31 01:42:25;;;;;;;12.68;6.18;;;25.90;99.90;;;;;;4988877;28;20042;-64
2022/05/31 01:45:03;;;;;;;10.65;5.80;;;25.90;99.90;;;;;;4991208;28;20030;-64
2022/05/31 01:47:30;;;;;;;8.80;5.18;;;26.00;99.90;;;;;;4992171;28;20034;-64
2022/05/31 01:49:58;;;;;;;11.60;4.78;;;26.00;99.90;;;;;;4991934;28;20022;-64
2022/05/31 01:52:26;;;;;;;7.47;4.40;;;26.00;99.90;;;;;;4990230;28;20050;-64
2022/05/31 01:54:54;;;;;;;9.32;5.45;;;26.10;99.90;;;;;;4991810;28;20121;-63
2022/05/31 01:57:23;;;;;;;14.32;5.50;;;26.10;99.90;;;;;;5027698;28;20068;-63
2022/05/31 01:59:55;;;;;;;15.32;7.35;;;26.20;99.90;;;;;;5051183;28;20032;-62
2022/05/31 02:02:22;;;;;;;10.95;7.22;;;26.30;99.90;;;;;;5049672;28;20033;-62
2022/05/31 02:04:49;;;;;;;13.45;7.05;;;26.30;99.90;;;;;;5053730;28;20107;-63
2022/05/31 02:07:21;;;;;;;15.35;8.20;;;26.40;99.90;;;;;;5053492;28;20025;-62
2022/05/31 02:09:53;;;;;;;18.08;8.65;;;26.50;99.90;;;;;;5062408;28;20032;-62
2022/05/31 02:12:21;;;;;;;16.27;9.40;;;26.50;99.90;;;;;;5058656;28;20052;-63
2022/05/31 02:14:48;;;;;;;24.75;9.38;;;26.50;99.90;;;;;;5052177;28;20031;-63
2022/05/31 02:17:17;;;;;;;18.42;9.15;;;26.50;99.90;;;;;;5050119;28;20033;-62
2022/05/31 02:19:44;;;;;;;11.85;7.13;;;26.50;99.90;;;;;;5046708;28;20048;-62
2022/05/31 02:22:15;;;;;;;12.88;6.88;;;26.40;99.90;;;;;;5052416;28;20481;-61
2022/05/31 02:24:42;;;;;;;16.38;9.93;;;26.50;99.90;;;;;;5045817;28;20111;-63
2022/05/31 02:27:09;;;;;;;21.48;8.88;;;26.70;99.90;;;;;;5051646;28;20027;-65
2022/05/31 02:29:39;;;;;;;12.82;7.85;;;26.80;99.90;;;;;;5051588;28;20430;-63
2022/05/31 02:32:08;;;;;;;13.40;7.47;;;26.90;99.90;;;;;;5047297;28;20021;-61
2022/05/31 02:34:39;;;;;;;12.57;6.82;;;27.00;99.90;;;;;;5051454;28;20200;-62
2022/05/31 02:37:06;;;;;;;8.68;6.18;;;27.10;99.90;;;;;;5048821;28;20017;-62
2022/05/31 02:39:33;;;;;;;12.60;6.95;;;27.10;99.90;;;;;;5050020;28;20045;-61
2022/05/31 02:42:02;;;;;;;12.65;7.00;;;27.20;99.90;;;;;;5047981;28;20021;-62
2022/05/31 02:44:28;;;;;;;15.75;9.82;;;27.10;99.90;;;;;;5042688;28;20382;-60
2022/05/31 02:46:55;;;;;;;15.93;9.50;;;27.10;99.90;;;;;;5051642;28;20033;-62
2022/05/31 02:49:22;;;;;;;13.00;7.63;;;27.00;99.90;;;;;;5052904;28;20017;-61
2022/05/31 02:51:49;;;;;;;14.57;8.52;;;27.00;99.90;;;;;;5054079;28;20013;-61
2022/05/31 02:54:19;;;;;;;13.07;9.48;;;27.10;99.90;;;;;;5052245;28;20036;-61
2022/05/31 02:56:46;;;;;;;10.57;7.85;;;27.20;99.90;;;;;;5050834;28;20278;-61
2022/05/31 02:59:13;;;;;;;13.20;7.72;;;27.20;99.90;;;;;;5046425;28;20025;-61
2022/05/31 03:01:41;;;;;;;81.13;59.50;;;27.40;99.90;;;;;;5049523;28;20029;-61
2022/05/31 03:04:09;;;;;;;16.75;11.68;;;27.40;99.90;;;;;;5050207;28;20475;-61
2022/05/31 03:06:37;;;;;;;18.30;11.25;;;27.60;99.90;;;;;;5046952;28;20072;-60
2022/05/31 03:09:07;;;;;;;24.75;18.77;;;27.70;99.90;;;;;;5050739;28;20028;-61
2022/05/31 03:11:54;;;;;;;19.80;11.00;;;27.90;99.90;;;;;;5045675;28;20032;-62
2022/05/31 03:14:35;;;;;;;11.82;7.80;;;27.90;99.90;;;;;;5050157;28;20466;-62
2022/05/31 03:17:12;;;;;;;8.98;6.85;;;28.00;99.90;;;;;;5044736;28;20032;-63
2022/05/31 03:19:49;;;;;;;13.82;7.50;;;28.00;99.90;;;;;;5046645;28;20435;-59
2022/05/31 03:22:19;;;;;;;28.35;18.25;;;28.10;99.90;;;;;;5048869;28;20013;-61
2022/05/31 03:24:53;;;;;;;19.40;14.05;;;28.20;99.90;;;;;;5053614;28;20025;-62
2022/05/31 03:27:19;;;;;;;22.63;14.10;;;28.20;99.90;;;;;;5049554;28;20021;-61
2022/05/31 03:29:49;;;;;;;14.95;9.30;;;28.40;99.90;;;;;;5057563;28;20056;-61
2022/05/31 03:32:16;;;;;;;12.95;9.52;;;28.60;99.90;;;;;;5047374;28;20021;-62
2022/05/31 03:34:43;;;;;;;11.52;8.23;;;28.60;99.90;;;;;;5053636;28;20040;-61
2022/05/31 03:37:10;;;;;;;13.63;7.53;;;28.80;99.90;;;;;;5053674;28;20029;-61
2022/05/31 03:39:37;;;;;;;13.32;7.72;;;29.00;99.90;;;;;;5050553;28;20013;-60
2022/05/31 03:42:05;;;;;;;16.48;7.97;;;29.00;99.90;;;;;;5047345;28;20057;-61
2022/05/31 03:44:32;;;;;;;10.82;6.93;;;29.00;99.90;;;;;;5053003;28;20029;-62
2022/05/31 03:47:01;;;;;;;13.85;8.07;;;29.00;99.90;;;;;;5051596;28;20041;-62
2022/05/31 03:49:27;;;;;;;28.60;8.13;;;29.10;99.90;;;;;;5043487;28;20103;-61
2022/05/31 03:51:54;;;;;;;12.82;8.60;;;29.20;99.90;;;;;;5040870;28;20027;-61
2022/05/31 03:54:21;;;;;;;15.73;7.70;;;29.20;99.90;;;;;;5048973;28;20033;-62
2022/05/31 03:56:47;;;;;;;12.52;6.50;;;29.20;99.90;;;;;;5050339;28;20429;-62
2022/05/31 03:59:14;;;;;;;11.05;6.88;;;29.40;99.90;;;;;;5054708;28;20028;-62
2022/05/31 04:01:40;;;;;;;13.73;6.88;;;29.30;99.90;;;;;;5053509;28;20021;-62
2022/05/31 04:04:08;;;;;;;12.70;6.47;;;29.40;99.90;;;;;;5052051;28;20020;-60
2022/05/31 04:06:36;;;;;;;10.65;6.50;;;29.50;99.90;;;;;;5055058;28;20028;-62
2022/05/31 04:09:04;;;;;;;10.50;5.80;;;29.60;99.90;;;;;;5052858;28;20466;-61
2022/05/31 04:11:31;;;;;;;10.70;6.18;;;29.60;99.90;;;;;;5055263;28;20029;-61
2022/05/31 04:13:57;;;;;;;8.85;5.30;;;29.70;99.90;;;;;;5059949;28;20072;-61
2022/05/31 04:16:26;;;;;;;6.80;4.63;;;29.80;99.90;;;;;;5053820;28;20024;-63
2022/05/31 04:18:53;;;;;;;7.15;4.32;;;29.90;99.90;;;;;;5047973;28;20046;-62
2022/05/31 04:21:20;;;;;;;8.07;4.40;;;29.80;99.90;;;;;;5055667;28;20025;-62
2022/05/31 04:23:58;;;;;;;5.70;4.10;;;29.80;99.90;;;;;;5055038;28;20037;-63
2022/05/31 04:26:28;;;;;;;6.97;3.83;;;29.90;99.90;;;;;;5055625;28;20028;-64
2022/05/31 04:28:55;;;;;;;5.47;4.05;;;29.90;99.90;;;;;;5060797;28;20536;-64
2022/05/31 04:31:22;;;;;;;5.80;3.70;;;29.90;99.90;;;;;;5055644;28;20033;-64
2022/05/31 04:33:49;;;;;;;5.50;4.03;;;30.00;99.90;;;;;;5054158;28;20033;-64
2022/05/31 04:36:18;;;;;;;4.82;3.70;;;30.00;99.90;;;;;;5052561;28;20032;-63
2022/05/31 04:38:45;;;;;;;10.10;5.20;;;30.00;99.90;;;;;;5056810;28;20063;-63
2022/05/31 04:41:25;;;;;;;9.80;5.45;;;30.00;99.90;;;;;;5076385;28;20095;-64
2022/05/31 04:43:53;;;;;;;10.73;6.10;;;30.20;99.90;;;;;;5076537;28;20388;-64
2022/05/31 04:46:23;;;;;;;12.32;7.15;;;30.30;99.90;;;;;;5058347;28;20025;-63
2022/05/31 04:48:50;;;;;;;7.45;5.13;;;30.30;99.90;;;;;;5059176;28;20211;-63
2022/05/31 04:51:17;;;;;;;10.32;6.57;;;30.40;99.90;;;;;;5059214;28;20103;-63
2022/05/31 04:53:44;;;;;;;8.32;5.18;;;30.50;99.90;;;;;;5053753;28;20051;-62
2022/05/31 04:56:13;;;;;;;14.60;6.05;;;30.40;99.90;;;;;;5045767;28;20032;-63
2022/05/31 04:58:40;;;;;;;9.52;4.93;;;30.50;99.90;;;;;;5048436;28;20386;-63
2022/05/31 05:01:07;;;;;;;6.22;4.53;;;30.50;99.90;;;;;;5048881;28;20025;-62
2022/05/31 05:03:36;;;;;;;5.63;4.80;;;30.40;99.90;;;;;;5052446;28;20139;-63
2022/05/31 05:06:06;;;;;;;9.90;5.82;;;30.40;99.90;;;;;;5053321;28;20037;-62
2022/05/31 05:08:34;;;;;;;11.40;6.15;;;30.40;99.90;;;;;;5053951;28;20040;-62
2022/05/31 05:11:03;;;;;;;11.68;6.25;;;30.40;99.90;;;;;;5045307;28;20148;-62
2022/05/31 05:13:31;;;;;;;10.57;6.50;;;30.50;99.90;;;;;;5040237;28;20029;-62
2022/05/31 05:15:59;;;;;;;11.00;6.53;;;30.40;99.90;;;;;;5052873;28;20021;-62
2022/05/31 05:18:27;;;;;;;15.88;6.78;;;30.50;99.90;;;;;;5052572;28;20029;-63
2022/05/31 05:20:54;;;;;;;9.35;6.78;;;30.60;99.90;;;;;;5054824;28;20017;-63
2022/05/31 05:23:21;;;;;;;8.13;6.82;;;30.70;99.90;;;;;;5054295;28;20547;-63
2022/05/31 05:25:54;;;;;;;23.00;8.15;;;30.70;99.90;;;;;;5054521;28;20064;-62
2022/05/31 05:31:17;;;;;;;10.65;6.43;;;30.80;99.90;;;;;;5034432;28;20030;-62
2022/05/31 05:33:44;;;;;;;10.02;6.55;;;30.90;99.90;;;;;;5041688;28;20045;-61
2022/05/31 05:36:10;;;;;;;10.25;6.85;;;31.00;99.90;;;;;;5048934;28;20466;-63
2022/05/31 05:38:37;;;;;;;10.45;6.22;;;30.90;99.90;;;;;;5053752;28;20104;-63
2022/05/31 05:41:04;;;;;;;10.32;7.20;;;31.00;99.90;;;;;;5052934;28;20045;-62
2022/05/31 05:43:30;;;;;;;14.05;6.63;;;31.10;99.90;;;;;;5052601;28;20028;-63
2022/05/31 05:45:57;;;;;;;11.75;7.35;;;31.20;99.90;;;;;;5051604;28;20050;-64
2022/05/31 05:48:24;;;;;;;14.70;7.93;;;31.10;99.90;;;;;;5052019;28;20087;-65
2022/05/31 05:50:50;;;;;;;9.77;7.53;;;31.20;99.90;;;;;;5053405;28;20035;-65
2022/05/31 05:53:17;;;;;;;10.80;6.82;;;31.30;99.90;;;;;;5050393;28;20033;-62
2022/05/31 05:55:44;;;;;;;13.30;6.72;;;31.30;99.90;;;;;;5051433;28;20025;-64
2022/05/31 05:58:17;;;;;;;13.82;6.55;;;31.50;99.90;;;;;;5052213;28;20449;-63
2022/05/31 06:00:49;;;;;;;11.93;6.80;;;31.50;99.90;;;;;;5045157;28;20060;-62
2022/05/31 06:03:20;;;;;;;;;;;31.40;99.90;;;;;;5052885;28;20107;-64
2022/05/31 06:05:48;;;;;;;8.57;6.33;;;31.50;99.90;;;;;;5052303;28;20365;-64
2022/05/31 06:08:37;;;;;;;15.85;6.90;;;31.40;99.90;;;;;;5053182;28;20025;-64
2022/05/31 06:11:21;;;;;;;13.25;7.20;;;31.50;99.90;;;;;;4953896;28;20055;-64
2022/05/31 06:13:56;;;;;;;11.90;7.53;;;31.60;99.90;;;;;;4941009;29;20467;-63
2022/05/31 06:16:27;;;;;;;15.18;6.80;;;31.70;99.90;;;;;;4953716;29;20027;-62
2022/05/31 06:19:00;;;;;;;10.68;7.40;;;31.60;99.90;;;;;;4949638;28;20039;-62
2022/05/31 06:21:26;;;;;;;12.65;7.50;;;31.60;99.90;;;;;;4949762;28;20107;-62
2022/05/31 06:23:55;;;;;;;10.77;7.80;;;31.60;99.90;;;;;;4950693;28;20035;-61
2022/05/31 06:26:22;;;;;;;9.70;6.82;;;31.60;99.90;;;;;;4952502;29;20027;-62
2022/05/31 06:28:48;;;;;;;18.30;8.27;;;31.70;99.90;;;;;;4952394;28;20211;-62
2022/05/31 06:31:15;;;;;;;10.23;7.50;;;31.80;99.90;;;;;;4952661;28;20389;-63
2022/05/31 06:33:42;;;;;;;12.15;8.05;;;31.90;99.90;;;;;;4947768;28;20485;-63
2022/05/31 06:36:08;;;;;;;11.75;7.32;;;31.90;99.90;;;;;;4947224;28;20036;-63
2022/05/31 06:38:35;;;;;;;15.27;7.38;;;31.90;99.90;;;;;;4953087;29;20023;-64
2022/05/31 06:41:04;;;;;;;14.13;8.18;;;32.00;99.90;;;;;;4950862;28;20054;-62
2022/05/31 06:43:31;;;;;;;10.82;7.85;;;32.10;99.90;;;;;;4959979;28;20148;-62
2022/05/31 06:46:02;;;;;;;13.65;9.23;;;32.10;99.90;;;;;;4953418;29;20117;-59
2022/05/31 06:48:29;;;;;;;17.77;10.27;;;32.20;99.90;;;;;;5019795;28;20039;-61
2022/05/31 06:50:55;;;;;;;11.73;8.98;;;32.30;99.90;;;;;;5053867;28;20040;-61
2022/05/31 06:58:58;;;;;;;16.05;9.20;;;32.30;99.90;;;;;;5057738;28;20083;-62
2022/05/31 07:01:31;;;;;;;15.73;10.18;;;32.40;99.70;;;;;;5059129;28;20033;-60
2022/05/31 07:03:59;;;;;;;19.23;10.95;;;32.40;99.50;;;;;;5056940;28;20090;-59
2022/05/31 07:06:26;;;;;;;21.95;10.85;;;32.40;99.90;;;;;;5057182;28;20390;-61
2022/05/31 07:08:56;;;;;;;14.18;10.05;;;32.60;99.90;;;;;;5056638;28;20036;-62
2022/05/31 07:11:23;;;;;;;17.85;9.63;;;32.60;98.80;;;;;;5062579;28;20028;-62
2022/05/31 07:13:50;;;;;;;18.50;12.45;;;32.50;99.10;;;;;;5058231;28;20080;-61
2022/05/31 07:16:17;;;;;;;17.15;9.95;;;32.50;99.00;;;;;;5045604;28;20018;-61
2022/05/31 07:18:43;;;;;;;19.42;12.15;;;32.50;99.20;;;;;;5055369;28;20108;-61
2022/05/31 07:21:11;;;;;;;35.33;20.35;;;32.40;99.30;;;;;;5055798;28;20029;-64
2022/05/31 07:23:41;;;;;;;17.23;11.00;;;32.50;99.70;;;;;;5056941;28;20079;-62
2022/05/31 07:26:09;;;;;;;19.20;14.27;;;32.40;99.00;;;;;;5055549;28;20025;-62
2022/05/31 07:28:36;;;;;;;21.10;14.32;;;32.40;99.00;;;;;;5056401;28;20052;-62
2022/05/31 07:31:02;;;;;;;19.77;11.48;;;32.50;98.90;;;;;;5056844;28;20539;-63
2022/05/31 07:33:29;;;;;;;20.42;10.20;;;32.50;98.80;;;;;;5055601;28;20025;-63
2022/05/31 07:35:56;;;;;;;20.65;11.32;;;32.60;98.20;;;;;;5055605;28;20029;-63
2022/05/31 07:38:23;;;;;;;23.67;15.13;;;32.60;98.20;;;;;;5055094;28;20355;-62
2022/05/31 07:40:50;;;;;;;18.92;10.93;;;32.60;98.00;;;;;;5056887;28;20036;-62
2022/05/31 07:43:17;;;;;;;16.55;9.77;;;32.60;97.70;;;;;;5056306;28;20025;-61
2022/05/31 07:45:44;;;;;;;22.10;14.30;;;32.60;97.20;;;;;;5055389;28;20385;-62
2022/05/31 07:48:11;;;;;;;20.15;11.20;;;32.60;97.10;;;;;;5053499;28;20445;-62
2022/05/31 07:50:38;;;;;;;26.10;13.20;;;32.60;97.10;;;;;;5055731;28;20025;-62
2022/05/31 07:53:05;;;;;;;23.10;12.15;;;32.60;97.70;;;;;;5054854;28;20489;-62
2022/05/31 07:55:32;;;;;;;20.45;11.27;;;32.60;98.30;;;;;;5054654;28;20029;-63
2022/05/31 08:00:45;;;;;;;12.88;10.32;;;32.60;97.30;;;;;;5035992;28;20021;-63
2022/05/31 08:03:12;;;;;;;26.85;12.73;;;32.70;97.70;;;;;;5036004;28;20105;-63
2022/05/31 08:05:40;;;;;;;14.98;10.20;;;32.70;97.10;;;;;;5065103;28;20074;-63
2022/05/31 08:08:09;;;;;;;22.15;9.98;;;32.80;97.20;;;;;;5063330;28;20116;-61
2022/05/31 08:10:36;;;;;;;16.48;12.18;;;32.70;97.40;;;;;;5055949;28;20025;-62
2022/05/31 08:13:03;;;;;;;17.38;9.88;;;32.60;97.10;;;;;;5056185;28;20120;-65
2022/05/31 08:15:29;;;;;;;14.70;9.27;;;32.60;96.90;;;;;;5054873;28;20025;-62
2022/05/31 08:17:56;;;;;;;17.13;9.80;;;32.50;96.90;;;;;;5049706;28;20027;-62
2022/05/31 08:20:23;;;;;;;200.27;159.90;;;32.50;97.30;;;;;;5053825;28;20437;-61
2022/05/31 08:22:50;;;;;;;25.15;14.00;;;32.60;97.70;;;;;;5053111;28;20037;-60
2022/05/31 08:25:17;;;;;;;29.88;15.60;;;32.50;97.50;;;;;;5054675;28;20029;-62
2022/05/31 08:27:43;;;;;;;44.38;32.88;;;32.60;97.50;;;;;;5055488;28;20041;-62
2022/05/31 08:30:11;;;;;;;79.43;53.50;;;32.60;97.30;;;;;;5054253;28;20029;-62
2022/05/31 08:32:38;;;;;;;51.65;39.55;;;32.70;97.30;;;;;;5047230;28;20083;-61
2022/05/31 08:35:06;;;;;;;22.00;12.00;;;32.70;97.60;;;;;;5036369;28;20103;-62
2022/05/31 08:37:33;;;;;;;11.65;8.27;;;32.80;97.00;;;;;;5050843;28;20033;-62
2022/05/31 08:40:00;;;;;;;12.82;8.02;;;32.80;96.20;;;;;;5046324;28;20035;-61
2022/05/31 08:42:43;;;;;;;14.55;8.90;;;32.90;96.70;;;;;;5046141;28;20032;-62
2022/05/31 08:45:16;;;;;;;19.33;10.25;;;32.90;96.10;;;;;;5037724;28;20096;-62
2022/05/31 08:47:46;;;;;;;14.65;10.00;;;33.00;96.40;;;;;;5034869;28;20038;-63
2022/05/31 08:53:15;;;;;;;19.45;13.70;;;32.90;95.80;;;;;;5042704;28;20111;-63
2022/05/31 08:58:55;;;;;;;15.07;8.95;;;32.80;95.90;;;;;;5038599;28;20029;-62
2022/05/31 09:01:30;;;;;;;23.85;10.15;;;32.80;95.90;;;;;;5046176;28;20021;-62
2022/05/31 09:04:20;;;;;;;16.08;11.90;;;32.80;96.10;;;;;;5049204;28;20522;-62
2022/05/31 09:06:52;;;;;;;16.80;10.40;;;32.70;96.30;;;;;;5047222;28;20025;-62
2022/05/31 09:09:38;;;;;;;22.00;10.68;;;32.70;96.50;;;;;;5038950;28;20024;-63
2022/05/31 09:12:06;;;;;;;15.05;9.35;;;32.50;96.90;;;;;;5063404;28;20111;-62
2022/05/31 09:14:37;;;;;;;16.95;9.45;;;32.60;97.30;;;;;;5051431;28;20033;-63
2022/05/31 09:17:06;;;;;;;16.23;10.30;;;32.60;97.50;;;;;;5049255;28;20400;-63
2022/05/31 09:19:38;;;;;;;22.38;9.65;;;32.50;96.60;;;;;;5040566;28;20017;-63
2022/05/31 09:22:07;;;;;;;23.83;9.75;;;32.50;97.50;;;;;;5052159;28;20028;-62
2022/05/31 09:24:40;;;;;;;18.27;12.57;;;32.50;97.30;;;;;;5051179;28;20052;-62
2022/05/31 09:27:11;;;;;;;40.00;24.08;;;32.50;96.90;;;;;;5050919;28;20021;-62
2022/05/31 09:29:56;;;;;;;22.33;14.52;;;32.50;96.60;;;;;;5052904;28;20032;-63
2022/05/31 09:32:34;;;;;;;21.00;11.90;;;32.40;96.70;;;;;;5052439;28;20021;-63
2022/05/31 09:35:31;;;;;;;17.55;10.68;;;32.40;96.50;;;;;;5036799;28;20355;-62
2022/05/31 09:38:18;;;;;;;18.35;10.35;;;32.40;96.60;;;;;;5052490;28;20063;-62
2022/05/31 09:41:14;;;;;;;19.15;12.40;;;32.40;97.10;;;;;;5046121;28;20017;-62
2022/05/31 09:43:54;;;;;;;25.50;14.40;;;32.40;97.00;;;;;;4951967;28;20405;-61
2022/05/31 09:46:30;;;;;;;23.38;12.98;;;32.30;97.20;;;;;;4952176;28;20035;-62
2022/05/31 09:48:58;;;;;;;23.75;12.13;;;32.20;97.20;;;;;;4951779;28;20604;-64
2022/05/31 09:51:38;;;;;;;27.17;15.05;;;32.20;97.20;;;;;;4949321;28;20079;-64
2022/05/31 09:59:49;;;;;;;32.25;21.50;;;32.00;97.30;;;;;;4944858;28;20028;-62
2022/05/31 10:02:36;;;;;;;80.00;45.40;;;32.00;97.70;;;;;;4952373;28;20019;-62
2022/05/31 10:05:16;;;;;;;32.65;21.70;;;32.00;98.00;;;;;;4952320;29;20051;-61
2022/05/31 10:07:42;;;;;;;35.22;23.02;;;31.90;98.20;;;;;;4954812;28;20031;-63
2022/05/31 10:10:15;;;;;;;40.53;25.25;;;31.90;98.60;;;;;;4947821;28;20110;-61
2022/05/31 10:13:04;;;;;;;27.63;17.88;;;31.90;98.70;;;;;;4938149;28;20035;-61
2022/05/31 10:15:51;;;;;;;29.35;16.67;;;31.90;98.60;;;;;;4952758;28;20445;-63
2022/05/31 10:18:30;;;;;;;39.33;25.65;;;31.80;99.00;;;;;;4951119;28;20034;-65
2022/05/31 10:21:02;;;;;;;41.40;27.95;;;31.80;99.30;;;;;;4965267;28;20384;-62
2022/05/31 10:23:37;;;;;;;37.40;26.00;;;31.70;99.10;;;;;;4953492;29;20043;-61
2022/05/31 10:26:05;;;;;;;34.15;18.98;;;31.60;99.30;;;;;;4962312;28;20047;-62
2022/05/31 10:28:36;;;;;;;26.23;18.15;;;31.60;99.30;;;;;;5049912;28;20508;-61
2022/05/31 10:31:19;;;;;;;44.63;26.80;;;31.60;99.40;;;;;;5044496;28;20025;-61
2022/05/31 10:34:07;;;;;;;41.83;22.60;;;31.50;99.60;;;;;;5022047;28;20111;-61
2022/05/31 10:36:51;;;;;;;50.10;26.67;;;31.50;99.90;;;;;;5044140;28;20155;-62
2022/05/31 10:39:24;;;;;;;50.65;25.95;;;31.40;99.90;;;;;;5047039;28;20102;-62
2022/05/31 10:41:54;;;;;;;37.85;23.38;;;31.40;99.90;;;;;;5048006;28;20110;-63
2022/05/31 10:44:28;;;;;;;40.20;21.92;;;31.30;99.90;;;;;;5051443;28;20033;-62
2022/05/31 10:47:05;;;;;;;41.95;21.85;;;31.30;99.90;;;;;;5033583;28;20056;-62
2022/05/31 10:49:32;;;;;;;45.08;29.50;;;31.30;99.90;;;;;;5048488;28;20033;-63
2022/05/31 10:52:27;;;;;;;54.40;31.25;;;31.20;99.90;;;;;;5049443;28;20107;-63
2022/05/31 10:55:05;;;;;;;64.43;34.88;;;31.20;99.90;;;;;;4969296;28;20042;-63
2022/05/31 10:58:02;;;;;;;78.35;44.10;;;31.20;99.90;;;;;;4971205;28;20117;-62
2022/05/31 11:00:57;;;;;;;107.57;60.05;;;31.20;99.90;;;;;;4971999;28;20488;-64
2022/05/31 11:03:42;;;;;;;71.18;42.88;;;31.20;99.90;;;;;;4971152;28;20282;-63
2022/05/31 11:06:28;;;;;;;68.93;39.00;;;31.20;99.90;;;;;;4988640;28;20042;-60
2022/05/31 11:11:57;;;;;;;63.25;37.88;;;31.10;99.90;;;;;;4912573;29;20067;-63
2022/05/31 11:14:45;;;;;;;68.40;37.88;;;31.10;99.90;;;;;;4911760;29;20048;-62
2022/05/31 11:17:23;;;;;;;72.03;42.10;;;31.10;99.90;;;;;;4889203;29;20041;-62
2022/05/31 11:20:02;;;;;;;60.65;37.97;;;31.10;99.90;;;;;;4882344;29;20040;-63
2022/05/31 11:22:28;;;;;;;68.60;37.53;;;31.20;99.90;;;;;;4890649;29;20030;-63
2022/05/31 11:25:06;;;;;;;70.50;46.40;;;31.10;99.90;;;;;;4894334;29;20087;-62
2022/05/31 11:27:50;;;;;;;159.77;107.15;;;31.10;99.90;;;;;;4891626;29;20169;-62
2022/05/31 11:30:33;;;;;;;104.15;69.93;;;31.10;99.90;;;;;;4894770;29;20069;-62
2022/05/31 11:33:02;;;;;;;69.50;41.47;;;31.10;99.90;;;;;;4910926;29;20445;-62
2022/05/31 11:36:08;;;;;;;62.42;33.63;;;31.10;99.90;;;;;;4947059;28;20493;-61
2022/05/31 11:39:15;;;;;;;49.25;27.75;;;31.10;99.90;;;;;;4947151;28;20043;-63
2022/05/31 11:41:48;;;;;;;65.90;34.05;;;31.20;99.90;;;;;;4949918;28;20027;-62
2022/05/31 11:44:34;;;;;;;50.92;26.33;;;31.20;99.90;;;;;;4948620;28;20263;-62
2022/05/31 11:47:22;;;;;;;46.90;25.77;;;31.10;99.90;;;;;;4882942;29;20041;-62
2022/05/31 11:50:28;;;;;;;42.17;23.38;;;31.10;99.90;;;;;;4877826;29;20052;-62
2022/05/31 11:52:56;;;;;;;54.13;24.92;;;31.10;99.90;;;;;;4850023;29;20054;-62
2022/05/31 11:55:33;;;;;;;50.63;27.10;;;31.10;99.90;;;;;;4855303;29;20038;-60
2022/05/31 11:58:10;;;;;;;57.28;35.05;;;31.00;99.90;;;;;;4859513;29;20047;-62
2022/05/31 12:01:11;;;;;;;44.10;25.38;;;31.00;99.90;;;;;;4860531;29;20029;-62
2022/05/31 12:03:39;;;;;;;53.67;34.15;;;31.00;99.90;;;;;;4822437;29;20056;-63
2022/05/31 12:06:23;;;;;;;104.85;60.03;;;30.90;99.90;;;;;;4806657;29;20087;-62
2022/05/31 12:09:00;;;;;;;91.10;52.65;;;30.90;99.90;;;;;;4822339;29;20092;-62
2022/05/31 12:11:46;;;;;;;64.18;37.25;;;30.90;99.90;;;;;;4823515;29;20559;-62
2022/05/31 12:14:14;;;;;;;52.92;28.45;;;30.80;99.90;;;;;;4805200;29;20489;-62
2022/05/31 12:16:41;;;;;;;43.08;26.52;;;30.80;99.90;;;;;;4802083;29;20039;-63
2022/05/31 12:19:25;;;;;;;64.93;36.80;;;30.80;99.90;;;;;;4801970;29;20477;-63
2022/05/31 12:21:58;;;;;;;72.78;41.50;;;30.80;99.90;;;;;;4805119;29;20061;-63
2022/05/31 12:24:38;;;;;;;68.00;37.28;;;30.70;99.90;;;;;;4827460;29;20129;-63
2022/05/31 12:27:06;;;;;;;42.28;28.05;;;30.70;99.90;;;;;;4839820;29;20053;-62
2022/05/31 12:29:40;;;;;;;51.95;26.75;;;30.70;99.90;;;;;;4833067;29;20457;-66
2022/05/31 12:32:26;;;;;;;40.63;24.48;;;30.60;99.90;;;;;;4841001;29;20563;-62
2022/05/31 12:34:54;;;;;;;48.00;26.17;;;30.60;99.90;;;;;;4842306;29;20046;-61
2022/05/31 12:37:21;;;;;;;52.78;27.73;;;30.60;99.90;;;;;;4894599;29;20028;-64
2022/05/31 12:39:50;;;;;;;47.97;24.75;;;30.50;99.90;;;;;;4907004;28;20477;-63
2022/05/31 12:42:35;;;;;;;48.78;26.45;;;30.50;99.90;;;;;;4952995;29;20030;-62
2022/05/31 12:45:25;;;;;;;46.03;26.98;;;30.40;99.90;;;;;;4973845;28;20023;-63
2022/05/31 12:47:56;;;;;;;70.45;29.90;;;30.50;99.90;;;;;;4987754;28;20031;-64
2022/05/31 12:50:44;;;;;;;54.83;30.70;;;30.40;99.90;;;;;;4992384;28;20029;-64
2022/05/31 12:55:38;;;;;;;45.88;28.98;;;30.40;99.90;;;;;;4916160;29;20040;-63
2022/05/31 13:00:57;;;;;;;146.27;102.78;;;30.40;99.90;;;;;;4912605;29;20037;-63
2022/05/31 13:03:32;;;;;;;106.75;71.90;;;30.40;99.90;;;;;;4925803;28;20570;-63
2022/05/31 13:06:01;;;;;;;58.00;35.80;;;30.50;99.90;;;;;;4965212;28;20033;-63
2022/05/31 13:20:23;;;;;;;54.13;30.53;;;30.50;99.90;;;;;;4960993;28;20054;-63
2022/05/31 13:22:59;;;;;;;60.10;39.38;;;30.50;99.90;;;;;;4986770;28;20087;-63
2022/05/31 13:25:32;;;;;;;44.88;29.35;;;30.40;99.90;;;;;;4992787;28;20042;-62
2022/05/31 13:28:01;;;;;;;133.23;98.35;;;30.40;99.90;;;;;;4983107;28;20182;-61
2022/05/31 13:30:32;;;;;;;122.13;94.93;;;30.50;99.90;;;;;;4979676;28;20026;-62
2022/05/31 13:33:08;;;;;;;100.75;70.18;;;30.40;99.90;;;;;;4991128;28;20069;-63
2022/05/31 13:35:35;;;;;;;71.50;52.75;;;30.40;99.90;;;;;;4977986;28;20043;-63
2022/05/31 13:38:06;;;;;;;49.55;37.45;;;30.30;99.90;;;;;;4971286;28;20535;-62
2022/05/31 13:40:40;;;;;;;34.00;21.17;;;30.20;99.90;;;;;;4975700;28;20026;-70